sensor_id;sensor_type;location;lat;lon;timestamp;temperature;humidity
1049;DHT22;513;51.444;7.196;2022-09-19T00:01:42;9.00;99.90
1049;DHT22;513;51.444;7.196;2022-09-19T00:04:11;9.00;99.90
1049;DHT22;513;51.444;7.196;2022-09-19T00:06:40;9.00;99.90
1049;DHT22;513;51.444;7.196;2022-09-19T00:09:09;9.10;99.90
1049;DHT22;513;51.444;7.196;2022-09-19T00:11:39;9.10;99.90
1049;DHT22;513;51.444;7.196;2022-09-19T00:14:07;9.10;99.90
1049;DHT22;513;51.444;7.196;2022-09-19T00:16:36;9.10;99.90
1049;DHT22;513;51.444;7.196;2022-09-19T00:19:05;9.10;99.90
1049;DHT22;513;51.444;7.196;2022-09-19T00:21:34;9.10;99.90
1049;DHT22;513;51.444;7.196;2022-09-19T00:24:01;9.10;99.90
1049;DHT22;513;51.444;7.196;2022-09-19T00:26:47;9.00;99.90
1049;DHT22;513;51.444;7.196;2022-09-19T00:29:17;9.00;99.90
1049;DHT22;513;51.444;7.196;2022-09-19T00:31:44;9.00;99.90
1049;DHT22;513;51.444;7.196;2022-09-19T00:34:12;9.00;99.90
1049;DHT22;513;51.444;7.196;2022-09-19T00:36:40;9.00;99.90
1049;DHT22;513;51.444;7.196;2022-09-19T00:39:09;9.10;99.90
1049;DHT22;513;51.444;7.196;2022-09-19T00:41:36;9.10;99.90
1049;DHT22;513;51.444;7.196;2022-09-19T00:44:06;9.10;99.90
1049;DHT22;513;51.444;7.196;2022-09-19T00:46:54;9.10;99.90
1049;DHT22;513;51.444;7.196;2022-09-19T00:49:26;9.10;99.90
1049;DHT22;513;51.444;7.196;2022-09-19T00:51:56;9.10;99.90
1049;DHT22;513;51.444;7.196;2022-09-19T00:54:28;9.10;99.90
1049;DHT22;513;51.444;7.196;2022-09-19T00:56:56;9.10;99.90
1049;DHT22;513;51.444;7.196;2022-09-19T00:59:26;9.00;99.90
1049;DHT22;513;51.444;7.196;2022-09-19T01:01:55;9.10;99.90
1049;DHT22;513;51.444;7.196;2022-09-19T01:04:25;9.10;99.90
1049;DHT22;513;51.444;7.196;2022-09-19T01:07:04;9.10;99.90
1049;DHT22;513;51.444;7.196;2022-09-19T01:09:45;9.10;99.90
1049;DHT22;513;51.444;7.196;2022-09-19T01:12:31;9.20;99.90
1049;DHT22;513;51.444;7.196;2022-09-19T01:15:30;9.10;99.90
1049;DHT22;513;51.444;7.196;2022-09-19T01:17:59;9.20;99.90
1049;DHT22;513;51.444;7.196;2022-09-19T01:20:45;9.20;99.90
1049;DHT22;513;51.444;7.196;2022-09-19T01:23:30;9.20;99.90
1049;DHT22;513;51.444;7.196;2022-09-19T01:26:13;9.20;99.90
1049;DHT22;513;51.444;7.196;2022-09-19T01:28:45;9.20;99.90
1049;DHT22;513;51.444;7.196;2022-09-19T01:31:16;9.20;99.90
1049;DHT22;513;51.444;7.196;2022-09-19T01:33:50;9.20;99.90
1049;DHT22;513;51.444;7.196;2022-09-19T01:36:20;9.30;99.90
1049;DHT22;513;51.444;7.196;2022-09-19T01:38:48;9.20;99.90
1049;DHT22;513;51.444;7.196;2022-09-19T01:41:17;9.20;99.90
1049;DHT22;513;51.444;7.196;2022-09-19T01:43:48;9.20;99.90
1049;DHT22;513;51.444;7.196;2022-09-19T01:46:22;9.20;99.90
1049;DHT22;513;51.444;7.196;2022-09-19T01:48:54;9.30;99.90
1049;DHT22;513;51.444;7.196;2022-09-19T01:51:34;9.30;99.90
1049;DHT22;513;51.444;7.196;2022-09-19T01:54:13;9.30;99.90
1049;DHT22;513;51.444;7.196;2022-09-19T01:56:51;9.30;99.90
1049;DHT22;513;51.444;7.196;2022-09-19T02:02:16;9.30;99.90
1049;DHT22;513;51.444;7.196;2022-09-19T02:04:49;9.30;99.90
1049;DHT22;513;51.444;7.196;2022-09-19T02:07:22;9.20;99.90
1049;DHT22;513;51.444;7.196;2022-09-19T02:09:57;9.20;99.90
1049;DHT22;513;51.444;7.196;2022-09-19T02:12:26;9.10;99.90
1049;DHT22;513;51.444;7.196;2022-09-19T02:14:55;9.10;99.90
1049;DHT22;513;51.444;7.196;2022-09-19T02:17:29;9.00;99.90
1049;DHT22;513;51.444;7.196;2022-09-19T02:20:02;9.00;99.90
1049;DHT22;513;51.444;7.196;2022-09-19T02:22:32;8.90;99.90
1049;DHT22;513;51.444;7.196;2022-09-19T02:25:03;8.90;99.90
1049;DHT22;513;51.444;7.196;2022-09-19T02:27:34;8.90;99.90
1049;DHT22;513;51.444;7.196;2022-09-19T02:30:07;8.90;99.90
1049;DHT22;513;51.444;7.196;2022-09-19T02:32:35;8.90;99.90
1049;DHT22;513;51.444;7.196;2022-09-19T02:35:03;8.90;99.90
1049;DHT22;513;51.444;7.196;2022-09-19T02:37:35;8.90;99.90
1049;DHT22;513;51.444;7.196;2022-09-19T02:40:06;8.90;99.90
1049;DHT22;513;51.444;7.196;2022-09-19T02:42:40;8.80;99.90
1049;DHT22;513;51.444;7.196;2022-09-19T02:45:14;8.80;99.90
1049;DHT22;513;51.444;7.196;2022-09-19T02:47:50;8.80;99.90
1049;DHT22;513;51.444;7.196;2022-09-19T02:50:22;8.80;99.90
1049;DHT22;513;51.444;7.196;2022-09-19T02:52:52;8.80;99.90
1049;DHT22;513;51.444;7.196;2022-09-19T02:55:22;8.80;99.90
1049;DHT22;513;51.444;7.196;2022-09-19T02:57:54;8.80;99.90
1049;DHT22;513;51.444;7.196;2022-09-19T03:00:22;8.70;99.90
1049;DHT22;513;51.444;7.196;2022-09-19T03:02:53;8.70;99.90
1049;DHT22;513;51.444;7.196;2022-09-19T03:05:24;8.70;99.90
1049;DHT22;513;51.444;7.196;2022-09-19T03:07:56;8.70;99.90
1049;DHT22;513;51.444;7.196;2022-09-19T03:10:27;8.60;99.90
1049;DHT22;513;51.444;7.196;2022-09-19T03:12:58;8.60;99.90
1049;DHT22;513;51.444;7.196;2022-09-19T03:15:31;8.70;99.90
1049;DHT22;513;51.444;7.196;2022-09-19T03:18:04;8.70;99.90
1049;DHT22;513;51.444;7.196;2022-09-19T03:20:34;8.60;99.90
1049;DHT22;513;51.444;7.196;2022-09-19T03:23:02;8.60;99.90
1049;DHT22;513;51.444;7.196;2022-09-19T03:25:29;8.70;99.90
1049;DHT22;513;51.444;7.196;2022-09-19T03:27:56;8.70;99.90
1049;DHT22;513;51.444;7.196;2022-09-19T03:30:23;8.80;99.90
1049;DHT22;513;51.444;7.196;2022-09-19T03:32:51;8.80;99.90
1049;DHT22;513;51.444;7.196;2022-09-19T03:35:18;8.80;99.90
1049;DHT22;513;51.444;7.196;2022-09-19T03:37:47;8.90;99.90
1049;DHT22;513;51.444;7.196;2022-09-19T03:40:16;8.90;99.90
1049;DHT22;513;51.444;7.196;2022-09-19T03:42:44;8.90;99.90
1049;DHT22;513;51.444;7.196;2022-09-19T03:45:11;8.90;99.90
1049;DHT22;513;51.444;7.196;2022-09-19T03:47:38;8.90;99.90
1049;DHT22;513;51.444;7.196;2022-09-19T03:50:07;8.90;99.90
1049;DHT22;513;51.444;7.196;2022-09-19T03:52:34;8.90;99.90
1049;DHT22;513;51.444;7.196;2022-09-19T03:55:01;8.90;99.90
1049;DHT22;513;51.444;7.196;2022-09-19T03:57:27;8.90;99.90
1049;DHT22;513;51.444;7.196;2022-09-19T03:59:54;8.90;99.90
1049;DHT22;513;51.444;7.196;2022-09-19T04:02:21;8.90;99.90
1049;DHT22;513;51.444;7.196;2022-09-19T04:04:47;8.90;99.90
1049;DHT22;513;51.444;7.196;2022-09-19T04:07:15;8.90;99.90
1049;DHT22;513;51.444;7.196;2022-09-19T04:09:42;8.80;99.90
1049;DHT22;513;51.444;7.196;2022-09-19T04:12:08;8.80;99.90
1049;DHT22;513;51.444;7.196;2022-09-19T04:14:35;8.80;99.90
1049;DHT22;513;51.444;7.196;2022-09-19T04:17:02;8.80;99.90
1049;DHT22;513;51.444;7.196;2022-09-19T04:19:29;8.80;99.90
1049;DHT22;513;51.444;7.196;2022-09-19T04:21:55;8.80;99.90
1049;DHT22;513;51.444;7.196;2022-09-19T04:24:27;8.80;99.90
1049;DHT22;513;51.444;7.196;2022-09-19T04:26:55;8.80;99.90
1049;DHT22;513;51.444;7.196;2022-09-19T04:29:25;8.90;99.90
1049;DHT22;513;51.444;7.196;2022-09-19T04:31:53;8.90;99.90
1049;DHT22;513;51.444;7.196;2022-09-19T04:34:20;8.90;99.90
1049;DHT22;513;51.444;7.196;2022-09-19T04:36:47;8.90;99.90
1049;DHT22;513;51.444;7.196;2022-09-19T04:39:16;9.00;99.90
1049;DHT22;513;51.444;7.196;2022-09-19T04:41:44;9.00;99.90
1049;DHT22;513;51.444;7.196;2022-09-19T04:44:10;9.10;99.90
1049;DHT22;513;51.444;7.196;2022-09-19T04:46:37;9.10;99.90
1049;DHT22;513;51.444;7.196;2022-09-19T04:49:07;9.10;99.90
1049;DHT22;513;51.444;7.196;2022-09-19T04:51:34;9.10;99.90
1049;DHT22;513;51.444;7.196;2022-09-19T04:54:00;9.10;99.90
1049;DHT22;513;51.444;7.196;2022-09-19T04:56:27;9.20;99.90
1049;DHT22;513;51.444;7.196;2022-09-19T04:58:55;9.20;99.90
1049;DHT22;513;51.444;7.196;2022-09-19T05:01:24;9.20;99.90
1049;DHT22;513;51.444;7.196;2022-09-19T05:03:51;9.20;99.90
1049;DHT22;513;51.444;7.196;2022-09-19T05:06:17;9.20;99.90
1049;DHT22;513;51.444;7.196;2022-09-19T05:08:44;9.20;99.90
1049;DHT22;513;51.444;7.196;2022-09-19T05:11:11;9.30;99.90
1049;DHT22;513;51.444;7.196;2022-09-19T05:13:38;9.30;99.90
1049;DHT22;513;51.444;7.196;2022-09-19T05:16:08;9.40;99.90
1049;DHT22;513;51.444;7.196;2022-09-19T05:18:35;9.40;99.90
1049;DHT22;513;51.444;7.196;2022-09-19T05:21:04;9.40;99.90
1049;DHT22;513;51.444;7.196;2022-09-19T05:23:32;9.40;99.90
1049;DHT22;513;51.444;7.196;2022-09-19T05:26:02;9.40;99.90
1049;DHT22;513;51.444;7.196;2022-09-19T05:28:29;9.40;99.90
1049;DHT22;513;51.444;7.196;2022-09-19T05:30:56;9.50;99.90
1049;DHT22;513;51.444;7.196;2022-09-19T05:33:25;9.50;99.90
1049;DHT22;513;51.444;7.196;2022-09-19T05:35:52;9.50;99.90
1049;DHT22;513;51.444;7.196;2022-09-19T05:38:19;9.50;99.90
1049;DHT22;513;51.444;7.196;2022-09-19T05:40:46;9.50;99.90
1049;DHT22;513;51.444;7.196;2022-09-19T05:43:12;9.50;99.90
1049;DHT22;513;51.444;7.196;2022-09-19T05:45:40;9.50;99.90
1049;DHT22;513;51.444;7.196;2022-09-19T05:48:07;9.50;99.90
1049;DHT22;513;51.444;7.196;2022-09-19T05:50:36;9.50;99.90
1049;DHT22;513;51.444;7.196;2022-09-19T05:53:02;9.50;99.90
1049;DHT22;513;51.444;7.196;2022-09-19T05:55:47;9.50;99.90
1049;DHT22;513;51.444;7.196;2022-09-19T05:58:14;9.50;99.90
1049;DHT22;513;51.444;7.196;2022-09-19T06:00:43;9.40;99.90
1049;DHT22;513;51.444;7.196;2022-09-19T06:03:12;9.40;99.90
1049;DHT22;513;51.444;7.196;2022-09-19T06:05:44;9.40;99.90
1049;DHT22;513;51.444;7.196;2022-09-19T06:08:13;9.50;99.90
1049;DHT22;513;51.444;7.196;2022-09-19T06:10:41;9.50;99.90
1049;DHT22;513;51.444;7.196;2022-09-19T06:13:10;9.50;99.90
1049;DHT22;513;51.444;7.196;2022-09-19T06:15:37;9.50;99.90
1049;DHT22;513;51.444;7.196;2022-09-19T06:18:05;9.50;99.90
1049;DHT22;513;51.444;7.196;2022-09-19T06:20:32;9.60;99.90
1049;DHT22;513;51.444;7.196;2022-09-19T06:23:01;9.60;99.90
1049;DHT22;513;51.444;7.196;2022-09-19T06:25:28;9.60;99.90
1049;DHT22;513;51.444;7.196;2022-09-19T06:27:55;9.70;99.90
1049;DHT22;513;51.444;7.196;2022-09-19T06:30:23;9.60;99.90
1049;DHT22;513;51.444;7.196;2022-09-19T06:32:50;9.70;99.90
1049;DHT22;513;51.444;7.196;2022-09-19T06:35:17;9.70;99.90
1049;DHT22;513;51.444;7.196;2022-09-19T06:37:43;9.80;99.90
1049;DHT22;513;51.444;7.196;2022-09-19T06:40:12;9.80;99.90
1049;DHT22;513;51.444;7.196;2022-09-19T06:42:39;9.90;99.90
1049;DHT22;513;51.444;7.196;2022-09-19T06:45:07;9.90;99.90
1049;DHT22;513;51.444;7.196;2022-09-19T06:47:33;10.00;99.90
1049;DHT22;513;51.444;7.196;2022-09-19T06:50:01;10.00;99.90
1049;DHT22;513;51.444;7.196;2022-09-19T06:52:28;10.00;99.90
1049;DHT22;513;51.444;7.196;2022-09-19T06:54:55;10.00;99.90
1049;DHT22;513;51.444;7.196;2022-09-19T06:57:25;10.00;99.90
1049;DHT22;513;51.444;7.196;2022-09-19T06:59:53;10.00;99.90
1049;DHT22;513;51.444;7.196;2022-09-19T07:02:19;10.20;99.90
1049;DHT22;513;51.444;7.196;2022-09-19T07:04:46;10.30;99.90
1049;DHT22;513;51.444;7.196;2022-09-19T07:07:13;10.30;99.90
1049;DHT22;513;51.444;7.196;2022-09-19T07:09:40;10.30;99.90
1049;DHT22;513;51.444;7.196;2022-09-19T07:12:08;10.30;99.90
1049;DHT22;513;51.444;7.196;2022-09-19T07:14:36;10.40;99.90
1049;DHT22;513;51.444;7.196;2022-09-19T07:17:03;10.50;99.90
1049;DHT22;513;51.444;7.196;2022-09-19T07:19:30;10.60;99.90
1049;DHT22;513;51.444;7.196;2022-09-19T07:21:57;10.70;99.90
1049;DHT22;513;51.444;7.196;2022-09-19T07:24:23;10.80;99.90
1049;DHT22;513;51.444;7.196;2022-09-19T07:26:50;10.90;99.90
1049;DHT22;513;51.444;7.196;2022-09-19T07:29:17;11.00;99.90
1049;DHT22;513;51.444;7.196;2022-09-19T07:31:45;11.10;99.90
1049;DHT22;513;51.444;7.196;2022-09-19T07:34:11;11.10;99.90
1049;DHT22;513;51.444;7.196;2022-09-19T07:36:38;11.20;99.90
1049;DHT22;513;51.444;7.196;2022-09-19T07:39:05;11.30;99.90
1049;DHT22;513;51.444;7.196;2022-09-19T07:41:32;11.50;99.90
1049;DHT22;513;51.444;7.196;2022-09-19T07:43:59;11.60;99.90
1049;DHT22;513;51.444;7.196;2022-09-19T07:46:25;11.60;99.90
1049;DHT22;513;51.444;7.196;2022-09-19T07:48:53;11.70;99.90
1049;DHT22;513;51.444;7.196;2022-09-19T07:51:20;11.80;99.90
1049;DHT22;513;51.444;7.196;2022-09-19T07:53:47;11.90;99.90
1049;DHT22;513;51.444;7.196;2022-09-19T07:56:15;12.00;99.90
1049;DHT22;513;51.444;7.196;2022-09-19T07:58:42;12.00;99.90
1049;DHT22;513;51.444;7.196;2022-09-19T08:01:08;12.00;99.90
1049;DHT22;513;51.444;7.196;2022-09-19T08:03:35;11.90;99.90
1049;DHT22;513;51.444;7.196;2022-09-19T08:06:03;12.00;99.90
1049;DHT22;513;51.444;7.196;2022-09-19T08:08:30;12.10;99.90
1049;DHT22;513;51.444;7.196;2022-09-19T08:10:58;12.10;99.90
1049;DHT22;513;51.444;7.196;2022-09-19T08:13:26;12.20;99.90
1049;DHT22;513;51.444;7.196;2022-09-19T08:15:54;12.10;99.90
1049;DHT22;513;51.444;7.196;2022-09-19T08:18:21;12.10;99.90
1049;DHT22;513;51.444;7.196;2022-09-19T08:20:49;12.10;99.90
1049;DHT22;513;51.444;7.196;2022-09-19T08:23:19;12.10;99.90
1049;DHT22;513;51.444;7.196;2022-09-19T08:25:47;12.20;99.90
1049;DHT22;513;51.444;7.196;2022-09-19T08:28:17;12.30;99.90
1049;DHT22;513;51.444;7.196;2022-09-19T08:30:45;12.40;99.90
1049;DHT22;513;51.444;7.196;2022-09-19T08:33:14;12.50;99.90
1049;DHT22;513;51.444;7.196;2022-09-19T08:35:41;12.60;99.90
1049;DHT22;513;51.444;7.196;2022-09-19T08:38:10;12.70;99.90
1049;DHT22;513;51.444;7.196;2022-09-19T08:40:50;12.80;99.90
1049;DHT22;513;51.444;7.196;2022-09-19T08:43:23;13.00;91.80
1049;DHT22;513;51.444;7.196;2022-09-19T08:46:07;13.00;62.30
1049;DHT22;513;51.444;7.196;2022-09-19T08:48:44;13.10;79.70
1049;DHT22;513;51.444;7.196;2022-09-19T08:51:17;13.20;80.10
1049;DHT22;513;51.444;7.196;2022-09-19T08:53:50;13.30;62.50
1049;DHT22;513;51.444;7.196;2022-09-19T08:56:19;13.40;57.60
1049;DHT22;513;51.444;7.196;2022-09-19T08:58:50;13.40;29.60
1049;DHT22;513;51.444;7.196;2022-09-19T09:01:19;13.40;17.50
1049;DHT22;513;51.444;7.196;2022-09-19T09:03:57;13.40;17.80
1049;DHT22;513;51.444;7.196;2022-09-19T09:06:31;13.40;27.70
1049;DHT22;513;51.444;7.196;2022-09-19T09:09:06;13.50;38.40
1049;DHT22;513;51.444;7.196;2022-09-19T09:11:39;13.70;28.00
1049;DHT22;513;51.444;7.196;2022-09-19T09:14:17;13.90;6.70
1049;DHT22;513;51.444;7.196;2022-09-19T09:16:57;14.00;1.00
1049;DHT22;513;51.444;7.196;2022-09-19T09:20:05;14.00;1.00
1049;DHT22;513;51.444;7.196;2022-09-19T09:22:38;14.30;1.00
1049;DHT22;513;51.444;7.196;2022-09-19T09:25:10;14.40;1.00
1049;DHT22;513;51.444;7.196;2022-09-19T09:27:43;14.40;1.00
1049;DHT22;513;51.444;7.196;2022-09-19T09:30:16;14.50;1.00
1049;DHT22;513;51.444;7.196;2022-09-19T09:32:46;14.60;1.00
1049;DHT22;513;51.444;7.196;2022-09-19T09:35:28;14.40;1.00
1049;DHT22;513;51.444;7.196;2022-09-19T09:37:58;14.50;1.00
1049;DHT22;513;51.444;7.196;2022-09-19T09:40:38;14.60;1.00
1049;DHT22;513;51.444;7.196;2022-09-19T09:43:30;14.60;1.00
1049;DHT22;513;51.444;7.196;2022-09-19T09:46:04;14.70;1.00
1049;DHT22;513;51.444;7.196;2022-09-19T09:48:36;14.50;1.00
1049;DHT22;513;51.444;7.196;2022-09-19T09:51:14;14.50;1.00
1049;DHT22;513;51.444;7.196;2022-09-19T09:54:04;14.50;1.00
1049;DHT22;513;51.444;7.196;2022-09-19T09:56:59;14.60;1.00
1049;DHT22;513;51.444;7.196;2022-09-19T09:59:32;14.50;1.00
1049;DHT22;513;51.444;7.196;2022-09-19T10:02:24;14.40;1.00
1049;DHT22;513;51.444;7.196;2022-09-19T10:05:14;14.40;1.00
1049;DHT22;513;51.444;7.196;2022-09-19T10:07:48;14.50;1.00
1049;DHT22;513;51.444;7.196;2022-09-19T10:10:25;14.70;1.00
1049;DHT22;513;51.444;7.196;2022-09-19T10:12:55;14.70;1.00
1049;DHT22;513;51.444;7.196;2022-09-19T10:15:25;14.60;1.00
1049;DHT22;513;51.444;7.196;2022-09-19T10:17:55;14.50;1.00
1049;DHT22;513;51.444;7.196;2022-09-19T10:20:34;14.40;1.00
1049;DHT22;513;51.444;7.196;2022-09-19T10:23:03;14.20;1.00
1049;DHT22;513;51.444;7.196;2022-09-19T10:25:30;14.20;1.00
1049;DHT22;513;51.444;7.196;2022-09-19T10:28:04;14.10;1.00
1049;DHT22;513;51.444;7.196;2022-09-19T10:30:51;14.10;1.00
1049;DHT22;513;51.444;7.196;2022-09-19T10:33:27;14.60;1.00
1049;DHT22;513;51.444;7.196;2022-09-19T10:35:54;14.70;1.00
1049;DHT22;513;51.444;7.196;2022-09-19T10:38:25;14.90;1.00
1049;DHT22;513;51.444;7.196;2022-09-19T10:40:54;14.90;1.00
1049;DHT22;513;51.444;7.196;2022-09-19T10:43:24;15.00;99.90
1049;DHT22;513;51.444;7.196;2022-09-19T10:45:58;15.10;99.90
1049;DHT22;513;51.444;7.196;2022-09-19T10:48:33;15.20;99.90
1049;DHT22;513;51.444;7.196;2022-09-19T10:51:04;15.30;49.40
1049;DHT22;513;51.444;7.196;2022-09-19T10:53:34;15.40;99.90
1049;DHT22;513;51.444;7.196;2022-09-19T10:56:04;15.70;99.90
1049;DHT22;513;51.444;7.196;2022-09-19T10:58:34;15.70;32.20
1049;DHT22;513;51.444;7.196;2022-09-19T11:01:19;15.60;99.90
1049;DHT22;513;51.444;7.196;2022-09-19T11:03:57;15.60;1.00
1049;DHT22;513;51.444;7.196;2022-09-19T11:06:24;15.80;99.90
1049;DHT22;513;51.444;7.196;2022-09-19T11:08:53;15.80;99.90
1049;DHT22;513;51.444;7.196;2022-09-19T11:11:30;15.70;99.90
1049;DHT22;513;51.444;7.196;2022-09-19T11:14:07;15.70;1.00
1049;DHT22;513;51.444;7.196;2022-09-19T11:16:40;15.60;99.90
1049;DHT22;513;51.444;7.196;2022-09-19T11:19:22;15.60;1.00
1049;DHT22;513;51.444;7.196;2022-09-19T11:22:02;15.50;1.00
1049;DHT22;513;51.444;7.196;2022-09-19T11:24:48;15.40;7.50
1049;DHT22;513;51.444;7.196;2022-09-19T11:27:35;15.50;1.00
1049;DHT22;513;51.444;7.196;2022-09-19T11:30:13;15.60;1.00
1049;DHT22;513;51.444;7.196;2022-09-19T11:33:00;15.90;1.00
1049;DHT22;513;51.444;7.196;2022-09-19T11:35:32;15.90;1.00
1049;DHT22;513;51.444;7.196;2022-09-19T11:38:23;16.10;1.00
1049;DHT22;513;51.444;7.196;2022-09-19T11:41:02;16.30;1.00
1049;DHT22;513;51.444;7.196;2022-09-19T11:43:39;16.70;1.00
1049;DHT22;513;51.444;7.196;2022-09-19T11:46:20;16.80;1.00
1049;DHT22;513;51.444;7.196;2022-09-19T11:49:10;16.80;99.90
1049;DHT22;513;51.444;7.196;2022-09-19T11:51:48;16.70;99.90
1049;DHT22;513;51.444;7.196;2022-09-19T11:54:48;16.50;99.90
1049;DHT22;513;51.444;7.196;2022-09-19T11:57:38;16.30;99.90
1049;DHT22;513;51.444;7.196;2022-09-19T12:00:14;16.20;99.90
1049;DHT22;513;51.444;7.196;2022-09-19T12:02:56;16.00;99.90
1049;DHT22;513;51.444;7.196;2022-09-19T12:05:34;15.80;99.90
1049;DHT22;513;51.444;7.196;2022-09-19T12:08:15;15.60;99.90
1049;DHT22;513;51.444;7.196;2022-09-19T12:10:47;15.10;1.00
1049;DHT22;513;51.444;7.196;2022-09-19T12:13:18;14.70;1.00
1049;DHT22;513;51.444;7.196;2022-09-19T12:15:50;14.40;99.90
1049;DHT22;513;51.444;7.196;2022-09-19T12:18:22;14.30;1.00
1049;DHT22;513;51.444;7.196;2022-09-19T12:20:54;14.40;1.00
1049;DHT22;513;51.444;7.196;2022-09-19T12:23:24;14.60;1.00
1049;DHT22;513;51.444;7.196;2022-09-19T12:26:15;14.80;1.00
1049;DHT22;513;51.444;7.196;2022-09-19T12:28:47;14.90;1.00
1049;DHT22;513;51.444;7.196;2022-09-19T12:31:20;14.90;99.90
1049;DHT22;513;51.444;7.196;2022-09-19T12:33:50;15.00;99.90
1049;DHT22;513;51.444;7.196;2022-09-19T12:36:25;15.20;99.90
1049;DHT22;513;51.444;7.196;2022-09-19T12:39:00;15.30;99.90
1049;DHT22;513;51.444;7.196;2022-09-19T12:41:35;15.30;99.90
1049;DHT22;513;51.444;7.196;2022-09-19T12:44:12;15.20;1.00
1049;DHT22;513;51.444;7.196;2022-09-19T12:46:49;15.30;1.00
1049;DHT22;513;51.444;7.196;2022-09-19T12:49:24;15.40;1.00
1049;DHT22;513;51.444;7.196;2022-09-19T12:52:00;15.60;99.90
1049;DHT22;513;51.444;7.196;2022-09-19T12:54:33;15.80;1.00
1049;DHT22;513;51.444;7.196;2022-09-19T12:57:05;15.90;1.00
1049;DHT22;513;51.444;7.196;2022-09-19T12:59:33;16.00;99.90
1049;DHT22;513;51.444;7.196;2022-09-19T13:02:04;16.00;99.90
1049;DHT22;513;51.444;7.196;2022-09-19T13:04:40;16.10;99.90
1049;DHT22;513;51.444;7.196;2022-09-19T13:07:15;16.10;99.90
1049;DHT22;513;51.444;7.196;2022-09-19T13:09:53;16.00;99.90
1049;DHT22;513;51.444;7.196;2022-09-19T13:12:32;16.10;99.90
1049;DHT22;513;51.444;7.196;2022-09-19T13:15:09;16.10;99.90
1049;DHT22;513;51.444;7.196;2022-09-19T13:17:39;16.20;99.90
1049;DHT22;513;51.444;7.196;2022-09-19T13:20:27;16.40;99.90
1049;DHT22;513;51.444;7.196;2022-09-19T13:23:16;16.30;99.90
1049;DHT22;513;51.444;7.196;2022-09-19T13:26:26;15.90;99.90
1049;DHT22;513;51.444;7.196;2022-09-19T13:29:02;15.30;1.00
1049;DHT22;513;51.444;7.196;2022-09-19T13:31:34;15.10;1.00
1049;DHT22;513;51.444;7.196;2022-09-19T13:34:38;14.90;15.60
1049;DHT22;513;51.444;7.196;2022-09-19T13:40:15;14.80;99.90
1049;DHT22;513;51.444;7.196;2022-09-19T13:42:50;14.90;99.90
1049;DHT22;513;51.444;7.196;2022-09-19T13:45:38;14.90;1.00
1049;DHT22;513;51.444;7.196;2022-09-19T13:48:19;15.10;1.00
1049;DHT22;513;51.444;7.196;2022-09-19T13:50:55;15.20;99.90
1049;DHT22;513;51.444;7.196;2022-09-19T13:53:29;15.20;99.90
1049;DHT22;513;51.444;7.196;2022-09-19T13:56:00;15.40;99.90
1049;DHT22;513;51.444;7.196;2022-09-19T13:58:30;15.70;7.50
1049;DHT22;513;51.444;7.196;2022-09-19T14:01:18;15.80;1.00
1049;DHT22;513;51.444;7.196;2022-09-19T14:03:53;15.70;99.90
1049;DHT22;513;51.444;7.196;2022-09-19T14:06:25;15.60;99.90
1049;DHT22;513;51.444;7.196;2022-09-19T14:09:18;15.50;99.90
1049;DHT22;513;51.444;7.196;2022-09-19T14:11:46;15.30;99.90
1049;DHT22;513;51.444;7.196;2022-09-19T14:14:53;15.30;99.90
1049;DHT22;513;51.444;7.196;2022-09-19T14:17:25;15.30;99.90
1049;DHT22;513;51.444;7.196;2022-09-19T14:19:55;15.20;99.90
1049;DHT22;513;51.444;7.196;2022-09-19T14:22:41;15.10;99.90
1049;DHT22;513;51.444;7.196;2022-09-19T14:25:16;15.00;99.90
1049;DHT22;513;51.444;7.196;2022-09-19T14:31:08;15.10;99.90
1049;DHT22;513;51.444;7.196;2022-09-19T14:34:17;15.10;99.90
1049;DHT22;513;51.444;7.196;2022-09-19T14:37:21;15.10;99.90
1049;DHT22;513;51.444;7.196;2022-09-19T14:40:09;15.10;99.90
1049;DHT22;513;51.444;7.196;2022-09-19T14:42:52;15.00;99.90
1049;DHT22;513;51.444;7.196;2022-09-19T14:45:30;15.00;99.90
1049;DHT22;513;51.444;7.196;2022-09-19T14:48:11;14.90;99.90
1049;DHT22;513;51.444;7.196;2022-09-19T14:50:44;14.80;99.90
1049;DHT22;513;51.444;7.196;2022-09-19T14:53:19;14.80;99.90
1049;DHT22;513;51.444;7.196;2022-09-19T14:55:58;14.90;1.00
1049;DHT22;513;51.444;7.196;2022-09-19T14:58:26;15.20;1.00
1049;DHT22;513;51.444;7.196;2022-09-19T15:00:56;15.40;99.90
1049;DHT22;513;51.444;7.196;2022-09-19T15:03:25;15.20;99.90
1049;DHT22;513;51.444;7.196;2022-09-19T15:05:53;14.90;99.90
1049;DHT22;513;51.444;7.196;2022-09-19T15:08:26;14.60;99.90
1049;DHT22;513;51.444;7.196;2022-09-19T15:11:02;14.20;1.00
1049;DHT22;513;51.444;7.196;2022-09-19T15:13:30;14.10;1.00
1049;DHT22;513;51.444;7.196;2022-09-19T15:16:01;14.00;99.90
1049;DHT22;513;51.444;7.196;2022-09-19T15:18:32;13.40;1.00
1049;DHT22;513;51.444;7.196;2022-09-19T15:21:03;13.30;1.00
1049;DHT22;513;51.444;7.196;2022-09-19T15:23:35;13.20;1.00
1049;DHT22;513;51.444;7.196;2022-09-19T15:26:05;13.20;1.00
1049;DHT22;513;51.444;7.196;2022-09-19T15:28:34;13.10;17.20
1049;DHT22;513;51.444;7.196;2022-09-19T15:31:14;13.10;28.60
1049;DHT22;513;51.444;7.196;2022-09-19T15:33:43;13.10;56.20
1049;DHT22;513;51.444;7.196;2022-09-19T15:36:13;13.00;93.40
1049;DHT22;513;51.444;7.196;2022-09-19T15:38:41;12.90;52.60
1049;DHT22;513;51.444;7.196;2022-09-19T15:41:11;12.90;39.80
1049;DHT22;513;51.444;7.196;2022-09-19T15:43:42;12.90;47.80
1049;DHT22;513;51.444;7.196;2022-09-19T15:46:36;12.80;54.20
1049;DHT22;513;51.444;7.196;2022-09-19T15:49:05;12.70;52.30
1049;DHT22;513;51.444;7.196;2022-09-19T15:51:38;12.70;44.00
1049;DHT22;513;51.444;7.196;2022-09-19T15:54:15;12.70;12.90
1049;DHT22;513;51.444;7.196;2022-09-19T15:56:45;12.80;23.50
1049;DHT22;513;51.444;7.196;2022-09-19T15:59:14;12.80;6.40
1049;DHT22;513;51.444;7.196;2022-09-19T16:01:45;12.80;14.30
1049;DHT22;513;51.444;7.196;2022-09-19T16:04:17;12.80;10.50
1049;DHT22;513;51.444;7.196;2022-09-19T16:06:55;12.70;12.40
1049;DHT22;513;51.444;7.196;2022-09-19T16:09:43;12.70;6.80
1049;DHT22;513;51.444;7.196;2022-09-19T16:12:30;12.70;11.40
1049;DHT22;513;51.444;7.196;2022-09-19T16:14:59;12.60;6.60
1049;DHT22;513;51.444;7.196;2022-09-19T16:20:39;12.50;14.60
1049;DHT22;513;51.444;7.196;2022-09-19T16:23:14;12.60;27.20
1049;DHT22;513;51.444;7.196;2022-09-19T16:25:43;12.70;28.50
1049;DHT22;513;51.444;7.196;2022-09-19T16:28:12;12.70;20.80
1049;DHT22;513;51.444;7.196;2022-09-19T16:30:51;12.80;23.10
1049;DHT22;513;51.444;7.196;2022-09-19T16:33:18;12.90;26.40
1049;DHT22;513;51.444;7.196;2022-09-19T16:35:50;13.00;28.30
1049;DHT22;513;51.444;7.196;2022-09-19T16:38:23;13.10;26.60
1049;DHT22;513;51.444;7.196;2022-09-19T16:40:53;13.30;17.20
1049;DHT22;513;51.444;7.196;2022-09-19T16:43:40;13.30;14.90
1049;DHT22;513;51.444;7.196;2022-09-19T16:46:13;13.40;6.10
1049;DHT22;513;51.444;7.196;2022-09-19T16:48:39;13.40;1.00
1049;DHT22;513;51.444;7.196;2022-09-19T16:51:13;13.40;1.00
1049;DHT22;513;51.444;7.196;2022-09-19T16:53:41;13.40;1.00
1049;DHT22;513;51.444;7.196;2022-09-19T16:56:13;13.40;1.00
1049;DHT22;513;51.444;7.196;2022-09-19T16:58:40;13.40;1.00
1049;DHT22;513;51.444;7.196;2022-09-19T17:01:07;13.40;1.00
1049;DHT22;513;51.444;7.196;2022-09-19T17:03:34;13.40;1.00
1049;DHT22;513;51.444;7.196;2022-09-19T17:06:01;13.30;1.60
1049;DHT22;513;51.444;7.196;2022-09-19T17:08:29;13.30;9.40
1049;DHT22;513;51.444;7.196;2022-09-19T17:10:56;13.20;16.30
1049;DHT22;513;51.444;7.196;2022-09-19T17:13:24;13.00;38.50
1049;DHT22;513;51.444;7.196;2022-09-19T17:15:52;12.90;45.10